This is the latest recevied weather packets stored in our database for station/object XE2G-31. If no packets are shown the sender has not sent any weather packets the latest 1 day(s).
| Time | Temp. | Humidity | Pressure | Rain* | Wind** | Luminosity | Snow |
|---|---|---|---|---|---|---|---|
| 1778102369 | 32.78° C | 27% | 867 hPa | - | - | - | - |
| 1778101422 | 32.78° C | 26% | 867 hPa | - | - | - | - |
| 1778100475 | 33.33° C | 27% | 868 hPa | - | - | - | - |
| 1778096688 | 33.89° C | 19% | 868 hPa | - | - | - | - |
| 1778094794 | 33.89° C | 23% | 868 hPa | - | - | - | - |
| 1778093848 | 34.44° C | 28% | 869 hPa | - | - | - | - |
| 1778091008 | 34.44° C | 23% | 869 hPa | - | - | - | - |
| 1778085326 | 33.89° C | 27% | 869 hPa | - | - | - | - |
| 1778084379 | 34.44° C | 28% | 869 hPa | - | - | - | - |
| 1778079645 | 33.89° C | 22% | 869 hPa | - | - | - | - |
| 1778078698 | 33.89° C | 24% | 869 hPa | - | - | - | - |
| 1778073964 | 30° C | 29% | 868 hPa | - | - | - | - |
| 1778073017 | 30° C | 29% | 868 hPa | - | - | - | - |
| 1778072070 | 28.33° C | 32% | 868 hPa | - | - | - | - |
| 1778068283 | 24.44° C | 46% | 867 hPa | - | - | - | - |
| 1778067336 | 25° C | 41% | 867 hPa | - | - | - | - |
| 1778064495 | 25.56° C | 41% | 867 hPa | - | - | - | - |
| 1778062602 | 25.56° C | 37% | 867 hPa | - | - | - | - |
| 1778061655 | 25.56° C | 38% | 867 hPa | - | - | - | - |
| 1778060708 | 25.56° C | 40% | 867 hPa | - | - | - | - |
| 1778057868 | 25.56° C | 39% | 867 hPa | - | - | - | - |
| 1778056921 | 25.56° C | 40% | 867 hPa | - | - | - | - |
| 1778055974 | 25.56° C | 42% | 867 hPa | - | - | - | - |
| 1778055027 | 24.44° C | 53% | 867 hPa | - | - | - | - |
| 1778054080 | 24.44° C | 55% | 868 hPa | - | - | - | - |
* Rain since midnight (hover to see other rain measurements)
** Current wind speed in m/s (hover to see current wind gust speed)